sensor_id;sensor_type;location;lat;lon;timestamp;pressure;altitude;pressure_sealevel;temperature;humidity
12799;BME280;19250;42.646;26.980;2023-01-31T00:01:08;98458.59;;;2.39;100.00
12799;BME280;19250;42.646;26.980;2023-01-31T00:03:36;98377.13;;;1.94;100.00
12799;BME280;19250;42.646;26.980;2023-01-31T00:06:16;98463.75;;;2.40;100.00
12799;BME280;19250;42.646;26.980;2023-01-31T00:08:44;98465.69;;;2.92;100.00
12799;BME280;19250;42.646;26.980;2023-01-31T00:11:13;98465.06;;;2.46;100.00
12799;BME280;19250;42.646;26.980;2023-01-31T00:13:41;98461.22;;;2.39;100.00
12799;BME280;19250;42.646;26.980;2023-01-31T00:16:10;98463.59;;;2.64;100.00
12799;BME280;19250;42.646;26.980;2023-01-31T00:18:38;98462.34;;;2.79;100.00
12799;BME280;19250;42.646;26.980;2023-01-31T00:21:07;98454.50;;;2.68;100.00
12799;BME280;19250;42.646;26.980;2023-01-31T00:23:35;98462.00;;;2.72;100.00
12799;BME280;19250;42.646;26.980;2023-01-31T00:26:15;98456.44;;;2.55;100.00
12799;BME280;19250;42.646;26.980;2023-01-31T00:28:43;98463.38;;;2.56;100.00
12799;BME280;19250;42.646;26.980;2023-01-31T00:31:11;98454.06;;;1.96;100.00
12799;BME280;19250;42.646;26.980;2023-01-31T00:33:40;98448.69;;;2.31;100.00
12799;BME280;19250;42.646;26.980;2023-01-31T00:36:10;98444.00;;;1.68;100.00
12799;BME280;19250;42.646;26.980;2023-01-31T00:38:38;98437.44;;;1.74;100.00
12799;BME280;19250;42.646;26.980;2023-01-31T00:41:07;98433.41;;;2.25;100.00
12799;BME280;19250;42.646;26.980;2023-01-31T00:43:36;98441.16;;;2.38;100.00
12799;BME280;19250;42.646;26.980;2023-01-31T00:46:03;98443.91;;;2.36;100.00
12799;BME280;19250;42.646;26.980;2023-01-31T00:48:31;98437.34;;;1.86;100.00
12799;BME280;19250;42.646;26.980;2023-01-31T00:50:58;98439.75;;;1.89;100.00
12799;BME280;19250;42.646;26.980;2023-01-31T00:53:26;98440.91;;;1.85;100.00
12799;BME280;19250;42.646;26.980;2023-01-31T00:55:55;98438.06;;;2.10;100.00
12799;BME280;19250;42.646;26.980;2023-01-31T00:58:23;98439.13;;;2.30;100.00
12799;BME280;19250;42.646;26.980;2023-01-31T01:00:52;98440.31;;;1.82;100.00
12799;BME280;19250;42.646;26.980;2023-01-31T01:03:19;98433.16;;;1.95;100.00
12799;BME280;19250;42.646;26.980;2023-01-31T01:05:46;98432.31;;;1.94;100.00
12799;BME280;19250;42.646;26.980;2023-01-31T01:08:13;98428.47;;;2.20;100.00
12799;BME280;19250;42.646;26.980;2023-01-31T01:10:41;98421.78;;;1.72;100.00
12799;BME280;19250;42.646;26.980;2023-01-31T01:13:08;98426.56;;;1.78;100.00
12799;BME280;19250;42.646;26.980;2023-01-31T01:15:37;98411.78;;;2.10;100.00
12799;BME280;19250;42.646;26.980;2023-01-31T01:18:06;98419.66;;;2.22;100.00
12799;BME280;19250;42.646;26.980;2023-01-31T01:20:34;98421.06;;;1.81;100.00
12799;BME280;19250;42.646;26.980;2023-01-31T01:23:01;98416.09;;;1.89;100.00
12799;BME280;19250;42.646;26.980;2023-01-31T01:25:28;98420.56;;;1.43;100.00
12799;BME280;19250;42.646;26.980;2023-01-31T01:27:55;98419.66;;;2.10;100.00
12799;BME280;19250;42.646;26.980;2023-01-31T01:30:23;98424.53;;;2.37;100.00
12799;BME280;19250;42.646;26.980;2023-01-31T01:32:50;98395.13;;;2.21;100.00
12799;BME280;19250;42.646;26.980;2023-01-31T01:35:21;98406.88;;;2.17;100.00
12799;BME280;19250;42.646;26.980;2023-01-31T01:37:48;98413.50;;;2.54;100.00
12799;BME280;19250;42.646;26.980;2023-01-31T01:40:16;98331.91;;;2.11;100.00
12799;BME280;19250;42.646;26.980;2023-01-31T01:42:43;98412.09;;;2.39;100.00
12799;BME280;19250;42.646;26.980;2023-01-31T01:45:12;98404.84;;;2.09;100.00
12799;BME280;19250;42.646;26.980;2023-01-31T01:47:44;98384.97;;;2.28;100.00
12799;BME280;19250;42.646;26.980;2023-01-31T01:50:16;98369.00;;;1.75;100.00
12799;BME280;19250;42.646;26.980;2023-01-31T01:52:49;98401.97;;;0.76;100.00
12799;BME280;19250;42.646;26.980;2023-01-31T01:55:21;98390.41;;;0.19;100.00
12799;BME280;19250;42.646;26.980;2023-01-31T01:57:52;98395.03;;;0.75;100.00
12799;BME280;19250;42.646;26.980;2023-01-31T02:00:23;98296.25;;;0.63;100.00
12799;BME280;19250;42.646;26.980;2023-01-31T02:02:52;98389.88;;;0.97;100.00
12799;BME280;19250;42.646;26.980;2023-01-31T02:05:25;98220.72;;;0.33;100.00
12799;BME280;19250;42.646;26.980;2023-01-31T02:07:55;98374.13;;;1.43;100.00
12799;BME280;19250;42.646;26.980;2023-01-31T02:10:28;98304.97;;;1.09;100.00
12799;BME280;19250;42.646;26.980;2023-01-31T02:12:56;98406.81;;;1.39;100.00
12799;BME280;19250;42.646;26.980;2023-01-31T02:15:25;98396.94;;;0.73;100.00
12799;BME280;19250;42.646;26.980;2023-01-31T02:17:52;98383.78;;;0.26;100.00
12799;BME280;19250;42.646;26.980;2023-01-31T02:20:55;98399.69;;;1.06;100.00
12799;BME280;19250;42.646;26.980;2023-01-31T02:23:50;98402.44;;;1.84;100.00
12799;BME280;19250;42.646;26.980;2023-01-31T02:26:47;98389.44;;;1.83;100.00
12799;BME280;19250;42.646;26.980;2023-01-31T02:29:39;98392.78;;;2.07;100.00
12799;BME280;19250;42.646;26.980;2023-01-31T02:32:36;98393.63;;;2.07;100.00
12799;BME280;19250;42.646;26.980;2023-01-31T02:35:14;98403.34;;;2.39;100.00
12799;BME280;19250;42.646;26.980;2023-01-31T02:37:47;98406.72;;;2.41;100.00
12799;BME280;19250;42.646;26.980;2023-01-31T02:40:26;98394.34;;;1.98;100.00
12799;BME280;19250;42.646;26.980;2023-01-31T02:43:00;98318.59;;;1.70;100.00
12799;BME280;19250;42.646;26.980;2023-01-31T02:45:37;98397.81;;;2.64;100.00
12799;BME280;19250;42.646;26.980;2023-01-31T02:48:16;98393.13;;;2.67;100.00
12799;BME280;19250;42.646;26.980;2023-01-31T02:50:51;98395.84;;;2.77;100.00
12799;BME280;19250;42.646;26.980;2023-01-31T02:53:27;98390.84;;;2.74;100.00
12799;BME280;19250;42.646;26.980;2023-01-31T02:55:58;98394.72;;;2.59;100.00
12799;BME280;19250;42.646;26.980;2023-01-31T02:58:46;98388.41;;;2.39;100.00
12799;BME280;19250;42.646;26.980;2023-01-31T03:01:20;98392.19;;;2.57;100.00
12799;BME280;19250;42.646;26.980;2023-01-31T03:03:51;98386.53;;;2.41;100.00
12799;BME280;19250;42.646;26.980;2023-01-31T03:06:40;98401.59;;;2.28;100.00
12799;BME280;19250;42.646;26.980;2023-01-31T03:09:22;98402.28;;;2.30;100.00
12799;BME280;19250;42.646;26.980;2023-01-31T03:12:05;98393.38;;;2.10;100.00
12799;BME280;19250;42.646;26.980;2023-01-31T03:14:45;98392.44;;;1.21;100.00
12799;BME280;19250;42.646;26.980;2023-01-31T03:17:21;98380.44;;;0.71;100.00
12799;BME280;19250;42.646;26.980;2023-01-31T03:20:03;98390.22;;;0.69;100.00
12799;BME280;19250;42.646;26.980;2023-01-31T03:22:34;98400.59;;;0.94;100.00
12799;BME280;19250;42.646;26.980;2023-01-31T03:25:03;98391.91;;;0.10;100.00
12799;BME280;19250;42.646;26.980;2023-01-31T03:27:33;98396.50;;;0.19;100.00
12799;BME280;19250;42.646;26.980;2023-01-31T03:30:05;98393.69;;;0.10;100.00
12799;BME280;19250;42.646;26.980;2023-01-31T03:32:38;98388.59;;;-0.17;100.00
12799;BME280;19250;42.646;26.980;2023-01-31T03:35:10;98389.53;;;-0.18;100.00
12799;BME280;19250;42.646;26.980;2023-01-31T03:37:41;98366.31;;;-0.23;100.00
12799;BME280;19250;42.646;26.980;2023-01-31T03:40:15;98399.34;;;0.40;100.00
12799;BME280;19250;42.646;26.980;2023-01-31T03:42:46;98396.91;;;0.26;100.00
12799;BME280;19250;42.646;26.980;2023-01-31T03:45:20;98397.06;;;-0.01;100.00
12799;BME280;19250;42.646;26.980;2023-01-31T03:47:50;98391.09;;;-0.03;100.00
12799;BME280;19250;42.646;26.980;2023-01-31T03:50:22;98335.22;;;-0.40;100.00
12799;BME280;19250;42.646;26.980;2023-01-31T03:52:55;98392.19;;;-0.31;100.00
12799;BME280;19250;42.646;26.980;2023-01-31T03:55:30;98395.63;;;-0.18;100.00
12799;BME280;19250;42.646;26.980;2023-01-31T03:58:01;98405.88;;;-0.15;100.00
12799;BME280;19250;42.646;26.980;2023-01-31T04:00:29;98393.91;;;0.07;100.00
12799;BME280;19250;42.646;26.980;2023-01-31T04:03:05;98391.94;;;-0.15;100.00
12799;BME280;19250;42.646;26.980;2023-01-31T04:05:36;98383.34;;;-0.05;100.00
12799;BME280;19250;42.646;26.980;2023-01-31T04:08:04;98392.09;;;0.20;100.00
12799;BME280;19250;42.646;26.980;2023-01-31T04:10:31;98385.69;;;0.24;100.00
12799;BME280;19250;42.646;26.980;2023-01-31T04:12:58;98391.50;;;0.04;100.00
12799;BME280;19250;42.646;26.980;2023-01-31T04:15:26;98392.31;;;0.17;100.00
12799;BME280;19250;42.646;26.980;2023-01-31T04:17:53;98380.78;;;0.07;100.00
12799;BME280;19250;42.646;26.980;2023-01-31T04:20:20;98388.88;;;0.40;100.00
12799;BME280;19250;42.646;26.980;2023-01-31T04:22:49;98383.34;;;0.32;100.00
12799;BME280;19250;42.646;26.980;2023-01-31T04:25:16;98381.97;;;0.39;100.00
12799;BME280;19250;42.646;26.980;2023-01-31T04:27:43;98384.06;;;0.34;100.00
12799;BME280;19250;42.646;26.980;2023-01-31T04:30:12;98391.91;;;0.10;100.00
12799;BME280;19250;42.646;26.980;2023-01-31T04:32:39;98387.88;;;-0.07;100.00
12799;BME280;19250;42.646;26.980;2023-01-31T04:35:07;98404.94;;;-0.14;100.00
12799;BME280;19250;42.646;26.980;2023-01-31T04:37:35;98400.78;;;-0.29;100.00
12799;BME280;19250;42.646;26.980;2023-01-31T04:40:04;98406.09;;;-0.05;100.00
12799;BME280;19250;42.646;26.980;2023-01-31T04:42:32;98411.25;;;-0.16;100.00
12799;BME280;19250;42.646;26.980;2023-01-31T04:44:59;98406.50;;;-0.11;100.00
12799;BME280;19250;42.646;26.980;2023-01-31T04:47:26;98406.84;;;-0.16;100.00
12799;BME280;19250;42.646;26.980;2023-01-31T04:49:53;98407.81;;;0.20;100.00
12799;BME280;19250;42.646;26.980;2023-01-31T04:52:20;98413.88;;;0.80;100.00
12799;BME280;19250;42.646;26.980;2023-01-31T04:54:49;98420.84;;;1.16;100.00
12799;BME280;19250;42.646;26.980;2023-01-31T04:57:17;98430.13;;;1.66;100.00
12799;BME280;19250;42.646;26.980;2023-01-31T04:59:44;98430.16;;;1.88;100.00
12799;BME280;19250;42.646;26.980;2023-01-31T05:02:12;98434.03;;;0.80;100.00
12799;BME280;19250;42.646;26.980;2023-01-31T05:04:39;98443.16;;;0.98;100.00
12799;BME280;19250;42.646;26.980;2023-01-31T05:07:07;98449.88;;;0.54;100.00
12799;BME280;19250;42.646;26.980;2023-01-31T05:09:34;98443.00;;;0.41;100.00
12799;BME280;19250;42.646;26.980;2023-01-31T05:12:01;98436.81;;;0.42;100.00
12799;BME280;19250;42.646;26.980;2023-01-31T05:14:30;98439.25;;;0.32;100.00
12799;BME280;19250;42.646;26.980;2023-01-31T05:16:58;98399.34;;;0.04;100.00
12799;BME280;19250;42.646;26.980;2023-01-31T05:19:25;98444.00;;;0.15;100.00
12799;BME280;19250;42.646;26.980;2023-01-31T05:21:51;98430.34;;;0.22;100.00
12799;BME280;19250;42.646;26.980;2023-01-31T05:24:23;98435.94;;;0.18;100.00
12799;BME280;19250;42.646;26.980;2023-01-31T05:26:50;98434.31;;;0.28;100.00
12799;BME280;19250;42.646;26.980;2023-01-31T05:29:20;98442.72;;;0.33;100.00
12799;BME280;19250;42.646;26.980;2023-01-31T05:31:50;98448.44;;;0.38;100.00
12799;BME280;19250;42.646;26.980;2023-01-31T05:34:17;98423.91;;;0.39;100.00
12799;BME280;19250;42.646;26.980;2023-01-31T05:36:44;98442.28;;;0.63;100.00
12799;BME280;19250;42.646;26.980;2023-01-31T05:39:11;98450.16;;;0.63;100.00
12799;BME280;19250;42.646;26.980;2023-01-31T05:41:38;98453.97;;;0.82;100.00
12799;BME280;19250;42.646;26.980;2023-01-31T05:44:06;98450.44;;;0.71;100.00
12799;BME280;19250;42.646;26.980;2023-01-31T05:46:33;98454.78;;;0.59;100.00
12799;BME280;19250;42.646;26.980;2023-01-31T05:49:02;98454.06;;;0.57;100.00
12799;BME280;19250;42.646;26.980;2023-01-31T05:51:29;98447.78;;;0.47;100.00
12799;BME280;19250;42.646;26.980;2023-01-31T05:53:56;98373.03;;;0.18;100.00
12799;BME280;19250;42.646;26.980;2023-01-31T05:56:25;98446.69;;;0.86;100.00
12799;BME280;19250;42.646;26.980;2023-01-31T05:58:52;98452.28;;;1.05;100.00
12799;BME280;19250;42.646;26.980;2023-01-31T06:01:21;98450.94;;;0.99;100.00
12799;BME280;19250;42.646;26.980;2023-01-31T06:03:49;98459.19;;;1.30;100.00
12799;BME280;19250;42.646;26.980;2023-01-31T06:06:18;98463.06;;;1.48;100.00
12799;BME280;19250;42.646;26.980;2023-01-31T06:08:45;98461.22;;;1.94;100.00
12799;BME280;19250;42.646;26.980;2023-01-31T06:11:15;98472.47;;;2.07;100.00
12799;BME280;19250;42.646;26.980;2023-01-31T06:13:44;98464.31;;;1.77;100.00
12799;BME280;19250;42.646;26.980;2023-01-31T06:16:13;98475.94;;;1.86;100.00
12799;BME280;19250;42.646;26.980;2023-01-31T06:18:40;98475.09;;;1.96;100.00
12799;BME280;19250;42.646;26.980;2023-01-31T06:21:07;98449.91;;;1.37;100.00
12799;BME280;19250;42.646;26.980;2023-01-31T06:23:38;98469.06;;;1.26;100.00
12799;BME280;19250;42.646;26.980;2023-01-31T06:26:06;98476.75;;;1.05;100.00
12799;BME280;19250;42.646;26.980;2023-01-31T06:28:33;98475.28;;;1.01;100.00
12799;BME280;19250;42.646;26.980;2023-01-31T06:31:05;98471.28;;;1.08;100.00
12799;BME280;19250;42.646;26.980;2023-01-31T06:33:33;98470.06;;;1.36;100.00
12799;BME280;19250;42.646;26.980;2023-01-31T06:36:00;98478.22;;;2.01;100.00
12799;BME280;19250;42.646;26.980;2023-01-31T06:38:28;98480.94;;;2.00;100.00
12799;BME280;19250;42.646;26.980;2023-01-31T06:40:57;98487.19;;;2.32;100.00
12799;BME280;19250;42.646;26.980;2023-01-31T06:43:24;98486.69;;;2.49;100.00
12799;BME280;19250;42.646;26.980;2023-01-31T06:45:51;98488.06;;;2.87;100.00
12799;BME280;19250;42.646;26.980;2023-01-31T06:48:18;98492.34;;;3.30;100.00
12799;BME280;19250;42.646;26.980;2023-01-31T06:50:46;98487.09;;;3.30;100.00
12799;BME280;19250;42.646;26.980;2023-01-31T06:53:13;98502.81;;;3.53;100.00
12799;BME280;19250;42.646;26.980;2023-01-31T06:55:40;98439.41;;;3.34;100.00
12799;BME280;19250;42.646;26.980;2023-01-31T06:58:09;98520.03;;;3.36;100.00
12799;BME280;19250;42.646;26.980;2023-01-31T07:00:36;98526.66;;;3.51;100.00
12799;BME280;19250;42.646;26.980;2023-01-31T07:03:04;98530.41;;;3.38;100.00
12799;BME280;19250;42.646;26.980;2023-01-31T07:05:32;98519.69;;;3.29;100.00
12799;BME280;19250;42.646;26.980;2023-01-31T07:07:59;98530.94;;;3.52;100.00
12799;BME280;19250;42.646;26.980;2023-01-31T07:10:26;98528.81;;;3.14;100.00
12799;BME280;19250;42.646;26.980;2023-01-31T07:12:53;98521.00;;;2.81;100.00
12799;BME280;19250;42.646;26.980;2023-01-31T07:15:22;98524.34;;;2.39;100.00
12799;BME280;19250;42.646;26.980;2023-01-31T07:17:49;98526.75;;;2.53;100.00
12799;BME280;19250;42.646;26.980;2023-01-31T07:20:16;98528.91;;;2.81;100.00
12799;BME280;19250;42.646;26.980;2023-01-31T07:22:44;98525.84;;;2.97;100.00
12799;BME280;19250;42.646;26.980;2023-01-31T07:25:11;98521.31;;;3.42;100.00
12799;BME280;19250;42.646;26.980;2023-01-31T07:27:38;98528.81;;;3.78;100.00
12799;BME280;19250;42.646;26.980;2023-01-31T07:30:06;98531.94;;;3.51;100.00
12799;BME280;19250;42.646;26.980;2023-01-31T07:32:35;98544.78;;;3.34;100.00
12799;BME280;19250;42.646;26.980;2023-01-31T07:35:02;98539.16;;;3.38;100.00
12799;BME280;19250;42.646;26.980;2023-01-31T07:37:29;98542.53;;;3.29;100.00
12799;BME280;19250;42.646;26.980;2023-01-31T07:39:57;98542.09;;;3.24;100.00
12799;BME280;19250;42.646;26.980;2023-01-31T07:42:24;98541.81;;;3.38;100.00
12799;BME280;19250;42.646;26.980;2023-01-31T07:44:51;98541.00;;;3.26;100.00
12799;BME280;19250;42.646;26.980;2023-01-31T07:47:18;98535.50;;;3.82;100.00
12799;BME280;19250;42.646;26.980;2023-01-31T07:49:47;98533.56;;;3.84;100.00
12799;BME280;19250;42.646;26.980;2023-01-31T07:52:15;98533.47;;;4.36;100.00
12799;BME280;19250;42.646;26.980;2023-01-31T07:54:42;98441.50;;;4.02;100.00
12799;BME280;19250;42.646;26.980;2023-01-31T07:57:09;98545.69;;;4.98;100.00
12799;BME280;19250;42.646;26.980;2023-01-31T07:59:37;98545.69;;;5.17;100.00
12799;BME280;19250;42.646;26.980;2023-01-31T08:02:08;98547.97;;;5.31;100.00
12799;BME280;19250;42.646;26.980;2023-01-31T08:04:54;98551.53;;;5.11;100.00
12799;BME280;19250;42.646;26.980;2023-01-31T08:07:22;98555.63;;;5.25;100.00
12799;BME280;19250;42.646;26.980;2023-01-31T08:09:49;98559.13;;;4.85;100.00
12799;BME280;19250;42.646;26.980;2023-01-31T08:12:16;98559.16;;;4.65;100.00
12799;BME280;19250;42.646;26.980;2023-01-31T08:14:43;98560.56;;;4.69;100.00
12799;BME280;19250;42.646;26.980;2023-01-31T08:17:11;98551.28;;;4.74;100.00
12799;BME280;19250;42.646;26.980;2023-01-31T08:19:38;98560.47;;;5.20;100.00
12799;BME280;19250;42.646;26.980;2023-01-31T08:22:06;98561.94;;;5.62;100.00
12799;BME280;19250;42.646;26.980;2023-01-31T08:24:34;98560.56;;;5.87;100.00
12799;BME280;19250;42.646;26.980;2023-01-31T08:27:01;98575.72;;;5.94;100.00
12799;BME280;19250;42.646;26.980;2023-01-31T08:29:28;98565.13;;;5.85;100.00
12799;BME280;19250;42.646;26.980;2023-01-31T08:31:55;98574.03;;;5.93;100.00
12799;BME280;19250;42.646;26.980;2023-01-31T08:34:22;98569.19;;;5.89;100.00
12799;BME280;19250;42.646;26.980;2023-01-31T08:36:50;98572.91;;;6.25;100.00
12799;BME280;19250;42.646;26.980;2023-01-31T08:39:18;98577.09;;;6.74;100.00
12799;BME280;19250;42.646;26.980;2023-01-31T08:41:45;98591.59;;;6.70;100.00
12799;BME280;19250;42.646;26.980;2023-01-31T08:44:13;98601.44;;;6.40;100.00
12799;BME280;19250;42.646;26.980;2023-01-31T08:46:40;98587.81;;;6.35;100.00
12799;BME280;19250;42.646;26.980;2023-01-31T08:49:07;98568.41;;;6.91;100.00
12799;BME280;19250;42.646;26.980;2023-01-31T08:51:36;98594.41;;;7.05;100.00
12799;BME280;19250;42.646;26.980;2023-01-31T08:54:03;98586.00;;;7.09;100.00
12799;BME280;19250;42.646;26.980;2023-01-31T08:56:32;98587.63;;;6.46;100.00
12799;BME280;19250;42.646;26.980;2023-01-31T08:58:59;98593.41;;;6.13;100.00
12799;BME280;19250;42.646;26.980;2023-01-31T09:01:27;98604.41;;;6.18;100.00
12799;BME280;19250;42.646;26.980;2023-01-31T09:03:54;98606.22;;;6.08;100.00
12799;BME280;19250;42.646;26.980;2023-01-31T09:06:24;98520.84;;;5.39;100.00
12799;BME280;19250;42.646;26.980;2023-01-31T09:08:52;98606.06;;;6.00;100.00
12799;BME280;19250;42.646;26.980;2023-01-31T09:11:19;98602.75;;;5.98;100.00
12799;BME280;19250;42.646;26.980;2023-01-31T09:13:48;98457.91;;;4.85;100.00
12799;BME280;19250;42.646;26.980;2023-01-31T09:16:17;98580.31;;;5.14;100.00
12799;BME280;19250;42.646;26.980;2023-01-31T09:18:45;98609.91;;;5.58;100.00
12799;BME280;19250;42.646;26.980;2023-01-31T09:21:14;98505.91;;;4.60;100.00
12799;BME280;19250;42.646;26.980;2023-01-31T09:23:42;98595.56;;;4.91;100.00
12799;BME280;19250;42.646;26.980;2023-01-31T09:26:10;98612.88;;;5.15;100.00
12799;BME280;19250;42.646;26.980;2023-01-31T09:28:37;98585.97;;;5.49;100.00
12799;BME280;19250;42.646;26.980;2023-01-31T09:31:10;98611.63;;;5.68;100.00
12799;BME280;19250;42.646;26.980;2023-01-31T09:33:38;98607.94;;;5.40;100.00
12799;BME280;19250;42.646;26.980;2023-01-31T09:36:07;98604.44;;;5.30;100.00
12799;BME280;19250;42.646;26.980;2023-01-31T09:38:35;98595.97;;;5.36;100.00
12799;BME280;19250;42.646;26.980;2023-01-31T09:41:04;98584.63;;;5.84;100.00
12799;BME280;19250;42.646;26.980;2023-01-31T09:43:35;98583.78;;;6.12;100.00
12799;BME280;19250;42.646;26.980;2023-01-31T09:46:05;98584.78;;;6.11;100.00
12799;BME280;19250;42.646;26.980;2023-01-31T09:48:37;98577.94;;;5.80;100.00
12799;BME280;19250;42.646;26.980;2023-01-31T09:51:10;98571.28;;;6.14;100.00
12799;BME280;19250;42.646;26.980;2023-01-31T09:53:39;98541.47;;;6.58;100.00
12799;BME280;19250;42.646;26.980;2023-01-31T09:56:21;98567.53;;;7.00;100.00
12799;BME280;19250;42.646;26.980;2023-01-31T09:58:55;98567.66;;;6.98;100.00
12799;BME280;19250;42.646;26.980;2023-01-31T10:01:30;98565.69;;;6.08;100.00
12799;BME280;19250;42.646;26.980;2023-01-31T10:04:32;98559.91;;;6.50;100.00
12799;BME280;19250;42.646;26.980;2023-01-31T10:07:04;98576.50;;;7.17;100.00
12799;BME280;19250;42.646;26.980;2023-01-31T10:09:34;98504.44;;;6.39;100.00
12799;BME280;19250;42.646;26.980;2023-01-31T10:12:08;98568.84;;;6.77;100.00
12799;BME280;19250;42.646;26.980;2023-01-31T10:14:44;98540.53;;;6.50;100.00
12799;BME280;19250;42.646;26.980;2023-01-31T10:17:17;98562.69;;;6.86;100.00
12799;BME280;19250;42.646;26.980;2023-01-31T10:19:51;98566.28;;;6.94;100.00
12799;BME280;19250;42.646;26.980;2023-01-31T10:22:24;98481.53;;;6.21;100.00
12799;BME280;19250;42.646;26.980;2023-01-31T10:24:56;98551.94;;;6.50;100.00
12799;BME280;19250;42.646;26.980;2023-01-31T10:27:37;98558.69;;;6.35;100.00
12799;BME280;19250;42.646;26.980;2023-01-31T10:30:15;98554.28;;;6.07;100.00
12799;BME280;19250;42.646;26.980;2023-01-31T10:32:45;98564.84;;;5.49;100.00
12799;BME280;19250;42.646;26.980;2023-01-31T10:35:19;98550.09;;;5.76;100.00
12799;BME280;19250;42.646;26.980;2023-01-31T10:37:50;98552.59;;;5.77;100.00
12799;BME280;19250;42.646;26.980;2023-01-31T10:40:22;98541.78;;;5.90;100.00
12799;BME280;19250;42.646;26.980;2023-01-31T10:42:56;98489.28;;;5.47;100.00
12799;BME280;19250;42.646;26.980;2023-01-31T10:45:26;98547.34;;;5.87;100.00
12799;BME280;19250;42.646;26.980;2023-01-31T10:47:58;98546.19;;;5.61;100.00
12799;BME280;19250;42.646;26.980;2023-01-31T10:50:39;98542.28;;;6.13;100.00
12799;BME280;19250;42.646;26.980;2023-01-31T10:53:22;98550.28;;;6.49;100.00
12799;BME280;19250;42.646;26.980;2023-01-31T10:56:03;98547.16;;;6.17;100.00
12799;BME280;19250;42.646;26.980;2023-01-31T10:58:31;98546.03;;;6.76;100.00
12799;BME280;19250;42.646;26.980;2023-01-31T11:01:00;98554.66;;;6.78;100.00
12799;BME280;19250;42.646;26.980;2023-01-31T11:03:32;98544.94;;;6.59;100.00
12799;BME280;19250;42.646;26.980;2023-01-31T11:06:00;98537.06;;;6.77;100.00
12799;BME280;19250;42.646;26.980;2023-01-31T11:08:33;98537.13;;;6.94;100.00
12799;BME280;19250;42.646;26.980;2023-01-31T11:11:07;98539.69;;;6.86;100.00
12799;BME280;19250;42.646;26.980;2023-01-31T11:13:35;98533.75;;;7.02;100.00
12799;BME280;19250;42.646;26.980;2023-01-31T11:16:05;98529.31;;;6.66;100.00
12799;BME280;19250;42.646;26.980;2023-01-31T11:18:36;98479.97;;;6.65;100.00
12799;BME280;19250;42.646;26.980;2023-01-31T11:21:05;98533.06;;;7.45;100.00
12799;BME280;19250;42.646;26.980;2023-01-31T11:23:33;98534.94;;;7.52;100.00
12799;BME280;19250;42.646;26.980;2023-01-31T11:26:02;98538.72;;;8.03;100.00
12799;BME280;19250;42.646;26.980;2023-01-31T11:28:34;98539.47;;;8.13;100.00
12799;BME280;19250;42.646;26.980;2023-01-31T11:31:05;98545.25;;;7.91;100.00
12799;BME280;19250;42.646;26.980;2023-01-31T11:33:40;98541.13;;;8.14;100.00
12799;BME280;19250;42.646;26.980;2023-01-31T11:36:12;98543.94;;;7.24;100.00
12799;BME280;19250;42.646;26.980;2023-01-31T11:38:40;98533.66;;;6.94;100.00
12799;BME280;19250;42.646;26.980;2023-01-31T11:41:30;98539.44;;;7.52;100.00
12799;BME280;19250;42.646;26.980;2023-01-31T11:44:10;98531.53;;;7.42;100.00
12799;BME280;19250;42.646;26.980;2023-01-31T11:46:43;98525.53;;;7.40;100.00
12799;BME280;19250;42.646;26.980;2023-01-31T11:49:11;98528.91;;;7.60;100.00
12799;BME280;19250;42.646;26.980;2023-01-31T11:51:41;98524.38;;;7.96;100.00
12799;BME280;19250;42.646;26.980;2023-01-31T11:54:14;98488.53;;;8.17;100.00
12799;BME280;19250;42.646;26.980;2023-01-31T11:56:45;98531.03;;;8.61;100.00
12799;BME280;19250;42.646;26.980;2023-01-31T11:59:17;98525.69;;;8.95;99.66
12799;BME280;19250;42.646;26.980;2023-01-31T12:01:48;98532.56;;;9.79;89.52
12799;BME280;19250;42.646;26.980;2023-01-31T12:04:20;98531.88;;;9.61;84.03
12799;BME280;19250;42.646;26.980;2023-01-31T12:07:00;98534.97;;;9.33;85.59
12799;BME280;19250;42.646;26.980;2023-01-31T12:09:30;98504.47;;;8.35;89.41
12799;BME280;19250;42.646;26.980;2023-01-31T12:12:22;98539.22;;;8.24;89.43
12799;BME280;19250;42.646;26.980;2023-01-31T12:14:50;98535.47;;;7.91;90.24
12799;BME280;19250;42.646;26.980;2023-01-31T12:17:18;98561.88;;;7.75;90.34
12799;BME280;19250;42.646;26.980;2023-01-31T12:19:58;98542.69;;;7.63;91.84
12799;BME280;19250;42.646;26.980;2023-01-31T12:22:31;98538.94;;;7.21;94.07
12799;BME280;19250;42.646;26.980;2023-01-31T12:25:07;98539.28;;;7.08;94.14
12799;BME280;19250;42.646;26.980;2023-01-31T12:27:50;98546.78;;;6.86;94.36
12799;BME280;19250;42.646;26.980;2023-01-31T12:30:43;98545.94;;;6.48;96.09
12799;BME280;19250;42.646;26.980;2023-01-31T12:33:30;98525.06;;;6.45;97.29
12799;BME280;19250;42.646;26.980;2023-01-31T12:36:11;98555.97;;;6.54;95.81
12799;BME280;19250;42.646;26.980;2023-01-31T12:39:00;98558.41;;;6.38;96.74
12799;BME280;19250;42.646;26.980;2023-01-31T12:41:31;98553.25;;;6.27;96.33
12799;BME280;19250;42.646;26.980;2023-01-31T12:44:22;98473.38;;;5.76;97.23
12799;BME280;19250;42.646;26.980;2023-01-31T12:47:04;98562.25;;;6.53;98.06
12799;BME280;19250;42.646;26.980;2023-01-31T12:49:49;98571.50;;;6.30;99.40
12799;BME280;19250;42.646;26.980;2023-01-31T12:52:23;98571.34;;;6.41;97.14
12799;BME280;19250;42.646;26.980;2023-01-31T12:55:04;98574.59;;;6.26;97.53
12799;BME280;19250;42.646;26.980;2023-01-31T12:57:42;98586.88;;;6.08;99.11
12799;BME280;19250;42.646;26.980;2023-01-31T13:00:24;98577.69;;;6.02;99.50
12799;BME280;19250;42.646;26.980;2023-01-31T13:03:08;98467.13;;;5.38;99.66
12799;BME280;19250;42.646;26.980;2023-01-31T13:05:44;98587.78;;;6.45;99.21
12799;BME280;19250;42.646;26.980;2023-01-31T13:08:16;98582.38;;;6.18;100.00
12799;BME280;19250;42.646;26.980;2023-01-31T13:10:50;98555.94;;;6.08;100.00